Time;durP1;ratioP1;P1;durP2;ratioP2;P2;SDS_P1;SDS_P2;PMS_P1;PMS_P2;Temp;Humidity;BMP_temperature;BMP_pressure;BME280_temperature;BME280_humidity;BME280_pressure;Samples;Min_cycle;Max_cycle;Signal;HPM_P1;HPM_P2
2022/07/19 00:02:04;;;;;;;5.13;2.47;;;;;;;;;;5001359;28;20058;-78
2022/07/19 00:04:30;;;;;;;4.37;2.30;;;;;;;;;;5008205;28;20053;-78
2022/07/19 00:06:55;;;;;;;5.95;2.35;;;;;;;;;;5016485;28;20080;-79
2022/07/19 00:09:21;;;;;;;6.00;2.22;;;;;;;;;;5005126;28;20049;-79
2022/07/19 00:11:47;;;;;;;4.10;2.15;;;;;;;;;;5005245;28;20044;-79
2022/07/19 00:14:12;;;;;;;4.53;1.90;;;;;;;;;;5019517;28;20042;-79
2022/07/19 00:16:37;;;;;;;4.38;2.30;;;;;;;;;;5005701;28;20073;-79
2022/07/19 00:19:03;;;;;;;3.92;2.13;;;;;;;;;;5004643;28;20068;-79
2022/07/19 00:21:28;;;;;;;3.70;1.90;;;;;;;;;;5025853;28;20042;-79
2022/07/19 00:23:53;;;;;;;4.53;2.08;;;;;;;;;;5017493;28;20172;-79
2022/07/19 00:26:19;;;;;;;4.50;2.30;;;;;;;;;;5019335;28;20030;-79
2022/07/19 00:28:44;;;;;;;4.03;2.05;;;;;;;;;;5005890;28;20098;-78
2022/07/19 00:31:09;;;;;;;3.70;2.00;;;;;;;;;;5007306;28;20144;-78
2022/07/19 00:33:35;;;;;;;4.53;1.90;;;;;;;;;;5003755;28;20112;-79
2022/07/19 00:36:00;;;;;;;4.43;2.45;;;;;;;;;;4999828;28;20049;-78
2022/07/19 00:38:26;;;;;;;4.55;2.15;;;;;;;;;;5015158;28;20580;-78
2022/07/19 00:40:51;;;;;;;4.50;2.20;;;;;;;;;;5000661;28;20041;-78
2022/07/19 00:43:16;;;;;;;3.90;2.15;;;;;;;;;;5013738;28;20087;-78
2022/07/19 00:45:42;;;;;;;4.22;2.13;;;;;;;;;;4998776;28;20756;-78
2022/07/19 00:48:07;;;;;;;5.70;2.58;;;;;;;;;;4998560;28;20041;-78
2022/07/19 00:50:33;;;;;;;4.18;1.90;;;;;;;;;;5012708;28;20025;-78
2022/07/19 00:53:01;;;;;;;4.20;2.20;;;;;;;;;;4998511;28;20099;-78
2022/07/19 00:55:28;;;;;;;3.80;1.92;;;;;;;;;;5012813;28;20045;-78
2022/07/19 00:57:55;;;;;;;3.63;2.00;;;;;;;;;;4997259;28;20129;-79
2022/07/19 01:00:21;;;;;;;3.65;1.80;;;;;;;;;;4986270;28;20037;-78
2022/07/19 01:02:47;;;;;;;4.07;1.90;;;;;;;;;;5002752;28;20036;-78
2022/07/19 01:05:12;;;;;;;4.35;1.90;;;;;;;;;;5013387;28;20088;-79
2022/07/19 01:07:40;;;;;;;4.47;2.00;;;;;;;;;;4998573;28;20033;-79
2022/07/19 01:10:08;;;;;;;4.97;2.20;;;;;;;;;;5000177;28;20483;-79
2022/07/19 01:12:37;;;;;;;3.17;1.77;;;;;;;;;;4996696;28;20064;-78
2022/07/19 01:15:12;;;;;;;4.53;2.00;;;;;;;;;;5002012;28;20563;-79
2022/07/19 01:17:37;;;;;;;3.40;1.90;;;;;;;;;;5010565;28;20041;-79
2022/07/19 01:20:03;;;;;;;5.63;1.98;;;;;;;;;;5014479;28;20112;-80
2022/07/19 01:22:28;;;;;;;6.63;2.67;;;;;;;;;;5013881;28;20547;-78
2022/07/19 01:24:54;;;;;;;4.07;1.80;;;;;;;;;;4998194;28;20068;-78
2022/07/19 01:27:19;;;;;;;4.63;2.10;;;;;;;;;;4988742;28;20413;-78
2022/07/19 01:29:44;;;;;;;5.63;2.10;;;;;;;;;;4997804;28;20471;-78
2022/07/19 01:32:10;;;;;;;26.08;3.58;;;;;;;;;;4997473;28;20045;-78
2022/07/19 01:34:35;;;;;;;9.50;2.38;;;;;;;;;;4998950;28;20065;-79
2022/07/19 01:37:01;;;;;;;10.20;2.22;;;;;;;;;;4982084;28;20063;-80
2022/07/19 01:39:26;;;;;;;14.52;2.72;;;;;;;;;;5010696;28;20052;-79
2022/07/19 01:41:51;;;;;;;29.15;5.07;;;;;;;;;;4986213;28;20034;-78
2022/07/19 01:44:17;;;;;;;23.48;4.13;;;;;;;;;;5007726;28;20030;-78
2022/07/19 01:46:45;;;;;;;11.85;2.97;;;;;;;;;;4981435;28;20040;-78
2022/07/19 01:49:10;;;;;;;11.75;3.38;;;;;;;;;;5011636;28;20038;-78
2022/07/19 01:51:36;;;;;;;9.55;2.90;;;;;;;;;;5012323;28;20121;-78
2022/07/19 01:54:01;;;;;;;6.03;2.58;;;;;;;;;;4999517;28;20033;-78
2022/07/19 01:56:26;;;;;;;4.97;2.90;;;;;;;;;;4984077;28;20069;-78
2022/07/19 01:58:52;;;;;;;9.57;2.90;;;;;;;;;;4998205;28;20034;-78
2022/07/19 02:01:17;;;;;;;4.72;2.65;;;;;;;;;;5001813;28;20041;-77
2022/07/19 02:03:42;;;;;;;5.25;2.80;;;;;;;;;;4981109;28;20101;-79
2022/07/19 02:06:08;;;;;;;5.47;2.83;;;;;;;;;;5010064;28;20485;-79
2022/07/19 02:08:33;;;;;;;5.10;2.70;;;;;;;;;;5005217;28;20053;-78
2022/07/19 02:10:59;;;;;;;6.93;2.58;;;;;;;;;;4980370;28;20038;-78
2022/07/19 02:13:24;;;;;;;6.68;2.72;;;;;;;;;;5011933;28;20087;-78
2022/07/19 02:15:50;;;;;;;9.13;3.20;;;;;;;;;;4986936;28;20038;-77
2022/07/19 02:18:15;;;;;;;11.10;3.50;;;;;;;;;;4999107;28;20037;-79
2022/07/19 02:20:41;;;;;;;6.22;2.90;;;;;;;;;;4995200;28;20083;-79
2022/07/19 02:23:06;;;;;;;5.60;2.67;;;;;;;;;;4998214;28;20099;-78
2022/07/19 02:25:31;;;;;;;6.90;2.88;;;;;;;;;;5000634;28;20426;-79
2022/07/19 02:27:57;;;;;;;7.07;2.95;;;;;;;;;;5021911;28;20501;-78
2022/07/19 02:30:23;;;;;;;5.50;3.00;;;;;;;;;;4998491;28;20034;-79
2022/07/19 02:32:48;;;;;;;5.03;2.78;;;;;;;;;;5012508;28;20489;-78
2022/07/19 02:35:13;;;;;;;6.88;2.85;;;;;;;;;;5013597;28;20041;-79
2022/07/19 02:37:40;;;;;;;5.80;2.78;;;;;;;;;;5013081;28;20068;-78
2022/07/19 02:40:06;;;;;;;4.63;2.53;;;;;;;;;;5001488;28;20133;-79
2022/07/19 02:42:31;;;;;;;5.97;2.97;;;;;;;;;;4986404;28;20026;-78
2022/07/19 02:44:57;;;;;;;6.25;3.10;;;;;;;;;;4995762;28;20125;-79
2022/07/19 02:47:22;;;;;;;5.40;2.90;;;;;;;;;;4998395;28;20040;-79
2022/07/19 02:49:47;;;;;;;6.60;2.75;;;;;;;;;;4997423;28;20053;-79
2022/07/19 02:52:13;;;;;;;5.47;2.90;;;;;;;;;;4983167;28;20505;-78
2022/07/19 02:54:38;;;;;;;6.53;3.20;;;;;;;;;;4997537;28;20143;-79
2022/07/19 02:57:04;;;;;;;6.20;2.78;;;;;;;;;;5002380;28;20046;-79
2022/07/19 02:59:32;;;;;;;5.93;3.15;;;;;;;;;;4995860;28;20029;-78
2022/07/19 03:01:57;;;;;;;5.65;2.72;;;;;;;;;;5019290;28;20545;-78
2022/07/19 03:04:22;;;;;;;5.25;2.58;;;;;;;;;;5000540;28;20040;-80
2022/07/19 03:06:48;;;;;;;5.00;2.88;;;;;;;;;;5012150;28;20127;-78
2022/07/19 03:09:13;;;;;;;5.68;2.65;;;;;;;;;;4998885;28;20885;-78
2022/07/19 03:11:39;;;;;;;6.55;3.10;;;;;;;;;;4997499;28;20132;-78
2022/07/19 03:14:04;;;;;;;6.00;2.72;;;;;;;;;;5013747;28;20564;-78
2022/07/19 03:16:30;;;;;;;5.38;2.70;;;;;;;;;;4996938;28;20042;-79
2022/07/19 03:18:55;;;;;;;5.43;2.80;;;;;;;;;;5005725;28;20055;-79
2022/07/19 03:21:20;;;;;;;6.03;2.55;;;;;;;;;;4987953;28;20496;-78
2022/07/19 03:23:46;;;;;;;5.18;2.58;;;;;;;;;;5000066;28;20044;-77
2022/07/19 03:26:11;;;;;;;6.55;2.80;;;;;;;;;;5008975;28;20488;-77
2022/07/19 03:28:37;;;;;;;7.32;2.97;;;;;;;;;;4996545;28;20442;-77
2022/07/19 03:31:02;;;;;;;6.47;3.10;;;;;;;;;;5008482;28;20543;-78
2022/07/19 03:33:28;;;;;;;5.57;2.80;;;;;;;;;;4999064;28;20036;-78
2022/07/19 03:35:53;;;;;;;5.47;2.80;;;;;;;;;;5001768;28;20856;-78
2022/07/19 03:38:19;;;;;;;5.85;2.55;;;;;;;;;;4988948;28;20498;-78
2022/07/19 03:40:47;;;;;;;5.05;2.65;;;;;;;;;;5013799;28;20034;-78
2022/07/19 03:43:12;;;;;;;6.40;2.80;;;;;;;;;;5015233;28;20029;-79
2022/07/19 03:45:37;;;;;;;6.40;3.20;;;;;;;;;;5015774;28;20037;-79
2022/07/19 03:48:03;;;;;;;5.93;2.70;;;;;;;;;;5015677;28;20464;-79
2022/07/19 03:50:28;;;;;;;7.88;2.80;;;;;;;;;;5000136;28;20033;-78
2022/07/19 03:52:54;;;;;;;6.05;2.33;;;;;;;;;;5003029;28;20173;-79
2022/07/19 03:55:19;;;;;;;6.28;2.42;;;;;;;;;;5018629;28;20129;-78
2022/07/19 03:57:45;;;;;;;6.18;2.80;;;;;;;;;;5000709;28;20029;-78
2022/07/19 04:00:10;;;;;;;5.78;2.72;;;;;;;;;;5012702;28;20054;-78
2022/07/19 04:02:36;;;;;;;8.75;3.03;;;;;;;;;;5012275;28;20030;-79
2022/07/19 04:05:01;;;;;;;4.45;2.20;;;;;;;;;;5015180;28;20048;-78
2022/07/19 04:07:27;;;;;;;3.10;1.70;;;;;;;;;;5019087;28;20041;-78
2022/07/19 04:09:52;;;;;;;5.22;1.30;;;;;;;;;;5013331;28;20042;-78
2022/07/19 04:12:17;;;;;;;6.10;1.83;;;;;;;;;;5015630;28;20033;-77
2022/07/19 04:14:43;;;;;;;2.80;1.30;;;;;;;;;;4999846;28;20037;-78
2022/07/19 04:17:08;;;;;;;4.80;1.70;;;;;;;;;;5012764;28;20073;-78
2022/07/19 04:19:33;;;;;;;2.45;1.08;;;;;;;;;;5015735;28;20179;-78
2022/07/19 04:21:59;;;;;;;2.92;1.20;;;;;;;;;;4999052;28;20033;-78
2022/07/19 04:24:24;;;;;;;2.78;1.20;;;;;;;;;;5023381;28;20037;-78
2022/07/19 04:26:49;;;;;;;3.72;1.40;;;;;;;;;;4997254;28;20042;-78
2022/07/19 04:29:14;;;;;;;2.92;1.38;;;;;;;;;;5015975;28;20041;-78
2022/07/19 04:31:40;;;;;;;2.97;1.50;;;;;;;;;;4998279;28;20042;-77
2022/07/19 04:34:05;;;;;;;3.15;1.50;;;;;;;;;;5000133;28;20029;-79
2022/07/19 04:36:31;;;;;;;3.42;1.60;;;;;;;;;;4997489;28;20485;-79
2022/07/19 04:38:56;;;;;;;3.13;1.33;;;;;;;;;;4999724;28;20033;-78
2022/07/19 04:41:22;;;;;;;3.75;1.58;;;;;;;;;;4998806;28;20064;-78
2022/07/19 04:43:47;;;;;;;3.25;1.40;;;;;;;;;;5012190;28;20038;-78
2022/07/19 04:46:12;;;;;;;3.85;1.63;;;;;;;;;;4997725;28;20030;-78
2022/07/19 04:48:40;;;;;;;4.20;1.50;;;;;;;;;;4998615;28;20504;-78
2022/07/19 04:51:06;;;;;;;4.80;1.60;;;;;;;;;;5011408;28;20030;-78
2022/07/19 04:53:31;;;;;;;6.88;1.52;;;;;;;;;;4991097;28;20478;-79
2022/07/19 04:55:56;;;;;;;3.05;1.30;;;;;;;;;;5007844;28;20043;-78
2022/07/19 04:58:22;;;;;;;3.38;1.35;;;;;;;;;;5013671;28;20048;-78
2022/07/19 05:00:47;;;;;;;2.95;1.25;;;;;;;;;;4998399;28;20148;-78
2022/07/19 05:03:12;;;;;;;5.85;1.92;;;;;;;;;;4997606;28;20548;-78
2022/07/19 05:05:38;;;;;;;4.07;1.30;;;;;;;;;;4995817;28;20979;-78
2022/07/19 05:08:04;;;;;;;3.22;1.30;;;;;;;;;;4998260;28;20034;-78
2022/07/19 05:10:32;;;;;;;4.25;1.40;;;;;;;;;;5004312;28;20128;-78
2022/07/19 05:12:58;;;;;;;3.20;1.20;;;;;;;;;;4984183;28;20041;-78
2022/07/19 05:15:23;;;;;;;2.58;1.10;;;;;;;;;;4997882;28;20044;-79
2022/07/19 05:17:48;;;;;;;3.22;1.08;;;;;;;;;;4998030;28;20030;-79
2022/07/19 05:20:15;;;;;;;2.92;1.42;;;;;;;;;;4997985;28;20049;-79
2022/07/19 05:22:41;;;;;;;2.95;1.20;;;;;;;;;;5016017;28;20091;-78
2022/07/19 05:25:07;;;;;;;3.50;1.17;;;;;;;;;;5013724;28;20033;-78
2022/07/19 05:27:32;;;;;;;2.63;1.20;;;;;;;;;;5001889;28;20129;-78
2022/07/19 05:29:57;;;;;;;3.45;1.30;;;;;;;;;;5012310;28;20033;-78
2022/07/19 05:32:23;;;;;;;3.15;1.42;;;;;;;;;;5016627;28;20097;-79
2022/07/19 05:34:48;;;;;;;2.28;0.90;;;;;;;;;;5001281;28;20461;-78
2022/07/19 05:37:14;;;;;;;3.78;1.42;;;;;;;;;;5000090;28;20055;-78
2022/07/19 05:39:39;;;;;;;3.15;1.20;;;;;;;;;;4998842;28;20033;-78
2022/07/19 05:42:05;;;;;;;2.85;1.33;;;;;;;;;;4998273;28;20572;-78
2022/07/19 05:44:30;;;;;;;2.63;1.10;;;;;;;;;;5012096;28;20040;-78
2022/07/19 05:46:55;;;;;;;2.67;1.13;;;;;;;;;;5011477;28;20113;-79
2022/07/19 05:49:21;;;;;;;3.20;1.33;;;;;;;;;;4998265;28;20033;-78
2022/07/19 05:51:46;;;;;;;2.63;1.10;;;;;;;;;;4986777;28;20033;-78
2022/07/19 05:54:11;;;;;;;2.67;0.95;;;;;;;;;;5012022;28;20088;-77
2022/07/19 05:56:37;;;;;;;2.53;0.88;;;;;;;;;;5012384;28;20045;-78
2022/07/19 05:59:02;;;;;;;2.53;1.10;;;;;;;;;;5012248;28;20121;-79
2022/07/19 06:01:27;;;;;;;2.75;1.00;;;;;;;;;;5011789;28;20386;-78
2022/07/19 06:03:58;;;;;;;2.67;1.17;;;;;;;;;;4983851;28;20376;-78
2022/07/19 06:06:29;;;;;;;2.25;0.90;;;;;;;;;;5010994;28;20068;-78
2022/07/19 06:08:55;;;;;;;2.53;1.00;;;;;;;;;;5000355;28;20490;-78
2022/07/19 06:11:22;;;;;;;3.78;1.00;;;;;;;;;;5003591;28;20038;-78
2022/07/19 06:13:48;;;;;;;2.92;1.40;;;;;;;;;;4995895;28;20045;-78
2022/07/19 06:16:13;;;;;;;2.75;1.10;;;;;;;;;;5009524;28;20033;-78
2022/07/19 06:18:39;;;;;;;3.47;1.20;;;;;;;;;;5008848;28;20944;-79
2022/07/19 06:21:08;;;;;;;2.85;1.00;;;;;;;;;;5012669;28;20062;-80
2022/07/19 06:23:33;;;;;;;3.40;1.00;;;;;;;;;;4994657;28;20053;-78
2022/07/19 06:25:58;;;;;;;1.90;0.80;;;;;;;;;;5008401;28;20026;-79
2022/07/19 06:28:25;;;;;;;2.75;1.20;;;;;;;;;;4996790;28;20487;-79
2022/07/19 06:30:50;;;;;;;3.47;1.30;;;;;;;;;;5007586;28;20038;-78
2022/07/19 06:33:15;;;;;;;2.55;1.08;;;;;;;;;;4997000;28;20033;-78
2022/07/19 06:35:41;;;;;;;2.63;0.90;;;;;;;;;;5001486;28;20502;-79
2022/07/19 06:38:06;;;;;;;2.10;1.00;;;;;;;;;;4999075;28;20041;-79
2022/07/19 06:40:32;;;;;;;2.13;0.90;;;;;;;;;;5008928;28;20419;-79
2022/07/19 06:42:57;;;;;;;2.40;1.13;;;;;;;;;;4996467;28;20493;-78
2022/07/19 06:45:23;;;;;;;3.20;0.98;;;;;;;;;;4999239;28;20033;-78
2022/07/19 06:47:50;;;;;;;3.10;1.17;;;;;;;;;;5019939;28;20072;-79
2022/07/19 06:50:15;;;;;;;2.15;0.88;;;;;;;;;;5007655;28;20508;-79
2022/07/19 06:52:41;;;;;;;3.72;1.13;;;;;;;;;;4997106;28;20038;-79
2022/07/19 06:55:07;;;;;;;1.77;0.80;;;;;;;;;;5007969;28;20729;-79
2022/07/19 06:57:32;;;;;;;2.33;0.82;;;;;;;;;;4984510;28;20640;-79
2022/07/19 06:59:57;;;;;;;4.38;0.85;;;;;;;;;;5008813;28;20164;-79
2022/07/19 07:02:23;;;;;;;1.40;0.70;;;;;;;;;;4999731;28;20573;-79
2022/07/19 07:04:48;;;;;;;2.17;0.82;;;;;;;;;;4998599;28;20489;-79
2022/07/19 07:07:14;;;;;;;3.13;0.90;;;;;;;;;;5006591;28;20444;-80
2022/07/19 07:09:39;;;;;;;2.38;0.93;;;;;;;;;;4999675;28;20038;-79
2022/07/19 07:12:04;;;;;;;2.72;0.98;;;;;;;;;;4991984;28;20091;-79
2022/07/19 07:14:30;;;;;;;2.25;0.80;;;;;;;;;;5000490;28;20369;-79
2022/07/19 07:16:55;;;;;;;3.33;1.15;;;;;;;;;;5013675;28;20069;-79
2022/07/19 07:19:20;;;;;;;1.27;0.50;;;;;;;;;;5017505;28;20497;-80
2022/07/19 07:21:46;;;;;;;3.47;0.85;;;;;;;;;;4988662;28;20448;-80
2022/07/19 07:24:12;;;;;;;2.38;0.73;;;;;;;;;;4999248;28;20034;-79
2022/07/19 07:26:37;;;;;;;1.75;0.80;;;;;;;;;;4982173;28;20026;-80
2022/07/19 07:29:03;;;;;;;2.75;0.95;;;;;;;;;;5008054;28;20042;-80
2022/07/19 07:31:28;;;;;;;1.77;0.60;;;;;;;;;;5012132;28;20494;-80
2022/07/19 07:33:53;;;;;;;2.28;0.90;;;;;;;;;;5000097;28;20057;-80
2022/07/19 07:36:19;;;;;;;1.42;0.60;;;;;;;;;;4998853;28;20029;-80
2022/07/19 07:38:44;;;;;;;1.98;0.77;;;;;;;;;;4997902;28;20038;-80
2022/07/19 07:41:12;;;;;;;1.70;0.75;;;;;;;;;;5005695;28;20397;-80
2022/07/19 07:43:37;;;;;;;2.10;0.80;;;;;;;;;;5010307;28;20030;-80
2022/07/19 07:46:08;;;;;;;2.15;0.80;;;;;;;;;;5015105;28;20045;-80
2022/07/19 07:48:34;;;;;;;2.08;0.70;;;;;;;;;;5006241;28;20505;-80
2022/07/19 07:50:59;;;;;;;2.42;0.65;;;;;;;;;;5010473;28;20026;-80
2022/07/19 07:53:24;;;;;;;1.92;0.70;;;;;;;;;;5000297;28;20075;-81
2022/07/19 07:55:50;;;;;;;1.40;0.55;;;;;;;;;;4991819;28;20046;-81
2022/07/19 07:58:15;;;;;;;2.42;0.70;;;;;;;;;;4983395;28;20042;-80
2022/07/19 08:00:41;;;;;;;1.95;0.77;;;;;;;;;;4993978;28;20476;-80
2022/07/19 08:03:06;;;;;;;1.95;0.60;;;;;;;;;;5000037;28;20038;-80
2022/07/19 08:05:32;;;;;;;4.25;1.02;;;;;;;;;;5013597;28;20087;-80
2022/07/19 08:07:59;;;;;;;2.03;0.88;;;;;;;;;;5012971;28;20516;-80
2022/07/19 08:10:26;;;;;;;2.50;0.90;;;;;;;;;;4999871;28;20547;-81
2022/07/19 08:12:52;;;;;;;2.78;0.90;;;;;;;;;;5006422;28;20041;-81
2022/07/19 08:15:17;;;;;;;2.28;0.80;;;;;;;;;;5000058;28;20029;-80
2022/07/19 08:17:42;;;;;;;1.77;0.70;;;;;;;;;;5010568;28;20037;-81
2022/07/19 08:20:08;;;;;;;1.42;0.60;;;;;;;;;;5009389;28;20500;-80
2022/07/19 08:22:34;;;;;;;2.45;0.77;;;;;;;;;;4999623;28;20065;-80
2022/07/19 08:24:59;;;;;;;1.67;0.60;;;;;;;;;;5007356;28;20040;-85
2022/07/19 08:27:25;;;;;;;1.98;0.60;;;;;;;;;;4999559;28;20112;-85
2022/07/19 08:29:50;;;;;;;4.35;0.90;;;;;;;;;;4999438;28;20055;-85
2022/07/19 08:32:16;;;;;;;1.70;0.68;;;;;;;;;;4982040;28;20034;-84
2022/07/19 08:34:41;;;;;;;2.78;1.08;;;;;;;;;;4986179;28;20049;-83
2022/07/19 08:37:07;;;;;;;1.70;0.70;;;;;;;;;;4997902;28;20049;-85
2022/07/19 08:39:32;;;;;;;1.77;0.60;;;;;;;;;;5003665;28;20061;-84
2022/07/19 08:41:57;;;;;;;2.13;0.90;;;;;;;;;;4999334;28;20363;-85
2022/07/19 08:44:23;;;;;;;2.23;0.67;;;;;;;;;;5013416;28;20030;-84
2022/07/19 08:46:49;;;;;;;2.03;0.60;;;;;;;;;;4997668;28;20037;-83
2022/07/19 08:49:15;;;;;;;1.80;0.60;;;;;;;;;;5008830;28;20037;-83
2022/07/19 08:51:44;;;;;;;1.60;0.50;;;;;;;;;;5004283;28;20524;-84
2022/07/19 08:54:09;;;;;;;1.55;0.60;;;;;;;;;;5016466;28;20033;-84
2022/07/19 08:59:23;;;;;;;2.10;0.80;;;;;;;;;;5015697;28;20042;-79
2022/07/19 09:01:48;;;;;;;3.42;0.88;;;;;;;;;;5013268;28;20045;-85
2022/07/19 09:04:16;;;;;;;1.33;0.53;;;;;;;;;;5001136;28;20045;-84
2022/07/19 09:06:52;;;;;;;1.42;0.70;;;;;;;;;;4989052;28;20041;-84
2022/07/19 09:09:19;;;;;;;;;;;;;;;;;;5003887;28;20086;-85
2022/07/19 09:11:50;;;;;;;1.75;0.73;;;;;;;;;;5014069;28;20758;-85
2022/07/19 09:14:19;;;;;;;1.73;0.60;;;;;;;;;;5000118;28;20514;-85
2022/07/19 09:17:02;;;;;;;2.08;0.70;;;;;;;;;;5013892;28;20038;-85
2022/07/19 09:19:33;;;;;;;5.65;1.10;;;;;;;;;;5013853;28;20109;-85
2022/07/19 09:21:58;;;;;;;2.60;0.80;;;;;;;;;;4995849;28;20481;-85
2022/07/19 09:24:25;;;;;;;1.80;0.73;;;;;;;;;;5011902;28;20039;-86
2022/07/19 09:27:08;;;;;;;3.42;0.95;;;;;;;;;;5022447;28;20032;-84
2022/07/19 09:29:35;;;;;;;2.72;0.90;;;;;;;;;;4993585;28;20229;-85
2022/07/19 09:32:13;;;;;;;2.03;0.80;;;;;;;;;;4996403;28;20038;-85
2022/07/19 09:34:38;;;;;;;1.88;0.77;;;;;;;;;;5013759;28;20034;-85
2022/07/19 09:37:22;;;;;;;;;;;;;;;;;;5006372;28;20541;-86
2022/07/19 09:39:59;;;;;;;2.50;0.80;;;;;;;;;;5006454;28;20008;-85
2022/07/19 09:42:34;;;;;;;27.40;3.22;;;;;;;;;;5012849;28;20052;-86
2022/07/19 09:45:08;;;;;;;1.63;0.65;;;;;;;;;;5013383;28;20037;-86
2022/07/19 09:47:37;;;;;;;2.60;0.88;;;;;;;;;;5022022;28;20033;-87
2022/07/19 09:50:06;;;;;;;2.33;1.00;;;;;;;;;;5005670;28;20077;-85
2022/07/19 09:52:33;;;;;;;2.00;0.82;;;;;;;;;;5012328;28;20065;-85
2022/07/19 09:55:00;;;;;;;2.20;0.80;;;;;;;;;;4991802;28;20057;-86
2022/07/19 09:57:27;;;;;;;2.30;0.85;;;;;;;;;;4999501;28;20064;-86
2022/07/19 09:59:57;;;;;;;1.90;0.80;;;;;;;;;;4997713;28;20136;-85
2022/07/19 10:02:23;;;;;;;2.38;0.77;;;;;;;;;;4998621;28;20037;-86
2022/07/19 10:04:50;;;;;;;2.97;1.05;;;;;;;;;;4996092;28;20087;-86
2022/07/19 10:07:17;;;;;;;1.52;0.60;;;;;;;;;;5003551;28;20513;-84
2022/07/19 10:09:43;;;;;;;3.63;0.85;;;;;;;;;;5002180;28;20498;-86
2022/07/19 10:12:10;;;;;;;2.25;0.80;;;;;;;;;;4984746;28;20655;-86
2022/07/19 10:14:36;;;;;;;3.08;0.88;;;;;;;;;;4997634;28;20507;-86
2022/07/19 10:17:18;;;;;;;2.78;0.90;;;;;;;;;;4998128;28;20034;-86
2022/07/19 10:19:46;;;;;;;1.67;0.70;;;;;;;;;;4997022;28;20041;-86
2022/07/19 10:22:14;;;;;;;2.35;0.70;;;;;;;;;;5007249;28;20029;-86
2022/07/19 10:24:49;;;;;;;1.83;0.70;;;;;;;;;;5014963;28;20782;-86
2022/07/19 10:27:17;;;;;;;1.83;0.73;;;;;;;;;;5013282;28;20040;-86
2022/07/19 10:29:43;;;;;;;2.13;0.70;;;;;;;;;;5008038;28;20041;-85
2022/07/19 10:32:13;;;;;;;1.45;0.60;;;;;;;;;;4981900;28;20030;-85
2022/07/19 10:34:40;;;;;;;2.72;1.00;;;;;;;;;;5010348;28;20120;-86
2022/07/19 10:37:05;;;;;;;2.30;0.82;;;;;;;;;;4983655;28;20037;-86
2022/07/19 10:39:35;;;;;;;1.55;0.73;;;;;;;;;;5004184;28;20042;-85
2022/07/19 10:42:19;;;;;;;1.98;0.68;;;;;;;;;;5013882;28;20110;-85
2022/07/19 10:44:57;;;;;;;1.77;0.75;;;;;;;;;;5009623;28;20472;-84
2022/07/19 10:47:31;;;;;;;2.20;0.77;;;;;;;;;;5018278;28;20038;-85
2022/07/19 10:50:14;;;;;;;16.75;2.25;;;;;;;;;;5015898;28;20068;-84
2022/07/19 10:52:42;;;;;;;2.00;0.60;;;;;;;;;;4999728;28;20034;-85
2022/07/19 10:57:49;;;;;;;3.38;0.70;;;;;;;;;;5019246;28;20501;-85
2022/07/19 11:00:21;;;;;;;2.05;0.90;;;;;;;;;;5005220;28;20061;-84
2022/07/19 11:02:48;;;;;;;2.05;1.00;;;;;;;;;;4997947;28;20116;-86
2022/07/19 11:05:24;;;;;;;1.75;0.73;;;;;;;;;;5003121;28;20408;-85
2022/07/19 11:07:50;;;;;;;2.97;0.90;;;;;;;;;;5014653;28;20421;-85
2022/07/19 11:10:24;;;;;;;2.10;0.80;;;;;;;;;;5012169;28;20413;-85
2022/07/19 11:12:49;;;;;;;1.88;0.80;;;;;;;;;;5006759;28;20034;-86
2022/07/19 11:15:16;;;;;;;1.60;0.80;;;;;;;;;;4997414;28;20037;-85
2022/07/19 11:17:51;;;;;;;2.97;0.80;;;;;;;;;;5008548;28;20033;-86
2022/07/19 11:20:19;;;;;;;1.50;0.52;;;;;;;;;;5019632;28;20037;-86
2022/07/19 11:22:46;;;;;;;1.42;0.50;;;;;;;;;;5010141;28;20108;-85
2022/07/19 11:25:12;;;;;;;1.25;0.50;;;;;;;;;;5000530;28;20458;-85
2022/07/19 11:27:47;;;;;;;1.67;0.65;;;;;;;;;;5017770;28;20596;-83
2022/07/19 11:30:14;;;;;;;2.35;0.80;;;;;;;;;;5001157;28;20042;-84
2022/07/19 11:32:41;;;;;;;1.13;0.40;;;;;;;;;;4992915;28;20577;-85
2022/07/19 11:35:08;;;;;;;1.70;0.70;;;;;;;;;;5000896;28;20025;-83
2022/07/19 11:37:36;;;;;;;1.98;0.70;;;;;;;;;;4981249;28;20610;-84
2022/07/19 11:40:04;;;;;;;1.42;0.65;;;;;;;;;;5019772;28;20556;-84
2022/07/19 11:42:34;;;;;;;2.00;0.90;;;;;;;;;;4999458;28;20029;-85
2022/07/19 11:45:10;;;;;;;1.67;0.80;;;;;;;;;;5021929;28;20058;-84
2022/07/19 11:47:36;;;;;;;2.67;0.85;;;;;;;;;;5004980;28;20045;-84
2022/07/19 11:50:09;;;;;;;1.43;0.60;;;;;;;;;;5001282;28;20056;-84
2022/07/19 11:53:01;;;;;;;1.60;0.80;;;;;;;;;;5003000;28;20539;-84
2022/07/19 11:55:36;;;;;;;2.95;1.08;;;;;;;;;;5015166;28;20149;-84
2022/07/19 11:58:06;;;;;;;1.90;0.80;;;;;;;;;;5014924;28;20459;-84
2022/07/19 12:00:33;;;;;;;2.05;0.90;;;;;;;;;;5007245;28;20041;-84
2022/07/19 12:03:06;;;;;;;1.73;0.82;;;;;;;;;;4998349;28;20061;-84
2022/07/19 12:05:33;;;;;;;1.95;0.70;;;;;;;;;;5016215;28;20029;-84
2022/07/19 12:08:01;;;;;;;2.33;0.90;;;;;;;;;;5015321;28;20486;-84
2022/07/19 12:10:33;;;;;;;2.42;0.90;;;;;;;;;;5002882;28;20545;-84
2022/07/19 12:12:59;;;;;;;1.90;0.90;;;;;;;;;;5024424;28;20039;-84
2022/07/19 12:15:25;;;;;;;1.95;0.90;;;;;;;;;;4999464;28;20389;-85
2022/07/19 12:17:57;;;;;;;2.10;0.87;;;;;;;;;;5022491;28;20571;-85
2022/07/19 12:20:23;;;;;;;2.20;0.90;;;;;;;;;;5002584;28;20045;-84
2022/07/19 12:22:48;;;;;;;2.63;1.13;;;;;;;;;;5011578;28;20040;-84
2022/07/19 12:25:14;;;;;;;2.50;1.10;;;;;;;;;;5001518;28;20053;-84
2022/07/19 12:27:40;;;;;;;2.60;1.20;;;;;;;;;;5007156;28;20076;-86
2022/07/19 12:30:06;;;;;;;;;;;;;;;;;;5013175;28;20049;-84
2022/07/19 12:32:34;;;;;;;2.53;1.08;;;;;;;;;;5012677;28;20332;-84
2022/07/19 12:35:08;;;;;;;2.20;0.88;;;;;;;;;;5017595;28;20034;-84
2022/07/19 12:37:39;;;;;;;2.20;1.00;;;;;;;;;;5016063;28;20041;-84
2022/07/19 12:40:09;;;;;;;2.85;1.10;;;;;;;;;;5014100;28;20925;-85
2022/07/19 12:42:46;;;;;;;2.63;1.10;;;;;;;;;;4998010;28;20219;-84
2022/07/19 12:45:17;;;;;;;2.17;1.10;;;;;;;;;;4998715;28;20041;-85
2022/07/19 12:47:46;;;;;;;2.80;1.00;;;;;;;;;;4984330;28;20096;-85
2022/07/19 12:50:26;;;;;;;2.85;1.05;;;;;;;;;;5015410;28;20040;-84
2022/07/19 12:52:52;;;;;;;2.13;0.95;;;;;;;;;;5006598;28;20033;-85
2022/07/19 12:55:18;;;;;;;3.00;1.08;;;;;;;;;;5008219;28;20116;-84
2022/07/19 12:57:44;;;;;;;2.08;1.00;;;;;;;;;;5012929;28;20193;-84
2022/07/19 13:00:10;;;;;;;1.88;0.98;;;;;;;;;;5000356;28;20136;-84
2022/07/19 13:02:35;;;;;;;2.55;0.90;;;;;;;;;;5011745;28;20448;-85
2022/07/19 13:05:01;;;;;;;2.45;0.90;;;;;;;;;;5001544;28;20030;-85
2022/07/19 13:07:26;;;;;;;3.22;1.35;;;;;;;;;;5000704;28;20103;-83
2022/07/19 13:09:51;;;;;;;2.63;1.00;;;;;;;;;;5000441;28;20129;-84
2022/07/19 13:12:17;;;;;;;2.88;1.08;;;;;;;;;;4997786;28;20038;-84
2022/07/19 13:14:42;;;;;;;3.00;1.10;;;;;;;;;;4995653;28;20037;-85
2022/07/19 13:17:11;;;;;;;2.35;0.93;;;;;;;;;;4998161;28;20531;-84
2022/07/19 13:19:39;;;;;;;3.15;1.20;;;;;;;;;;5006378;28;20038;-84
2022/07/19 13:22:05;;;;;;;4.45;1.50;;;;;;;;;;5005677;28;20058;-85
2022/07/19 13:24:31;;;;;;;2.58;1.30;;;;;;;;;;4999881;28;20172;-84
2022/07/19 13:26:56;;;;;;;2.70;1.17;;;;;;;;;;4997588;28;20593;-83
2022/07/19 13:29:22;;;;;;;2.50;1.20;;;;;;;;;;5015536;28;20033;-84
2022/07/19 13:31:47;;;;;;;3.58;1.52;;;;;;;;;;4995080;28;20436;-84
2022/07/19 13:34:13;;;;;;;2.90;1.20;;;;;;;;;;4999792;28;20064;-84
2022/07/19 13:36:38;;;;;;;2.58;1.40;;;;;;;;;;5004799;28;20022;-85
2022/07/19 13:39:04;;;;;;;2.47;1.20;;;;;;;;;;4998139;28;20409;-85
2022/07/19 13:41:29;;;;;;;2.63;1.20;;;;;;;;;;5000945;28;20130;-85
2022/07/19 13:43:54;;;;;;;2.70;1.13;;;;;;;;;;5015411;28;20129;-86
2022/07/19 13:46:20;;;;;;;3.17;1.38;;;;;;;;;;4982014;28;20055;-84
2022/07/19 13:48:46;;;;;;;2.77;1.20;;;;;;;;;;5011708;28;21469;-84
2022/07/19 13:51:11;;;;;;;3.30;1.40;;;;;;;;;;5011673;28;20108;-85
2022/07/19 13:53:37;;;;;;;2.78;1.17;;;;;;;;;;5000306;28;20125;-85
2022/07/19 13:56:04;;;;;;;2.25;0.90;;;;;;;;;;4999181;28;20037;-85
2022/07/19 13:58:29;;;;;;;2.95;1.30;;;;;;;;;;5015642;28;20458;-84
2022/07/19 14:00:55;;;;;;;2.53;1.20;;;;;;;;;;4990560;28;20145;-84
2022/07/19 14:03:20;;;;;;;2.15;1.00;;;;;;;;;;5005715;28;20038;-84
2022/07/19 14:05:47;;;;;;;3.00;1.50;;;;;;;;;;5002563;28;20110;-84
2022/07/19 14:08:12;;;;;;;;;;;;;;;;;;5014343;28;20042;-84
2022/07/19 14:10:38;;;;;;;2.40;1.00;;;;;;;;;;5011839;28;20004;-84
2022/07/19 14:13:04;;;;;;;3.30;1.40;;;;;;;;;;5005718;28;20752;-84
2022/07/19 14:15:30;;;;;;;2.28;1.13;;;;;;;;;;5013442;28;20052;-84
2022/07/19 14:17:56;;;;;;;3.30;1.20;;;;;;;;;;4997380;28;20037;-84
2022/07/19 14:20:21;;;;;;;3.47;1.30;;;;;;;;;;4995310;28;20557;-85
2022/07/19 14:22:47;;;;;;;3.28;1.20;;;;;;;;;;4980106;28;20034;-85
2022/07/19 14:25:12;;;;;;;3.10;1.25;;;;;;;;;;4998417;28;20053;-85
2022/07/19 14:27:37;;;;;;;2.85;1.20;;;;;;;;;;4980811;28;20109;-85
2022/07/19 14:30:03;;;;;;;2.85;1.02;;;;;;;;;;4979654;28;20038;-85
2022/07/19 14:32:29;;;;;;;3.15;1.17;;;;;;;;;;4996060;28;20026;-85
2022/07/19 14:34:54;;;;;;;3.30;1.10;;;;;;;;;;4997210;28;20503;-84
2022/07/19 14:37:20;;;;;;;2.20;1.05;;;;;;;;;;4993714;28;20040;-85
2022/07/19 14:39:45;;;;;;;2.80;1.13;;;;;;;;;;4982159;28;20048;-85
2022/07/19 14:42:10;;;;;;;2.55;1.00;;;;;;;;;;4990744;28;20026;-85
2022/07/19 14:44:36;;;;;;;2.45;1.15;;;;;;;;;;4998985;28;20068;-84
2022/07/19 14:47:01;;;;;;;2.90;1.45;;;;;;;;;;4997757;28;20034;-84